Lewiston Woodville, North Carolina
Current Conditions -  °F | °C
As of 10:55 PM on Tuesday 25 Nov 2014 (Local Time) from KASJ Reporting Station
Light Rain Light Rain  
Wind Chill: 47°   Ceiling: 2100
Heat Index: 49°   Visibility: 7mi
Dew Point: 47°   Wind: 5mph
Humidity: 96%   Direction: 20°NNE
Pressure: 30.1"   Gusts: NA
Location:  36.11°N, 77.18°W
Report Text: KASJ 260355Z AUTO 02004KT 7SM -RA BKN021 BKN037 OVC080 09/09 A3010 RMK AO2 P0002 T00920086
Loading
Personal Weather Stations






























Interactive Weather Map New forecast layout! Learn more

10-Day Weather Forecast

Advertisements
Track Severe Weather on mobile